createdAt,value
2017-09-02T00:00:18.913Z,3.12
2017-09-02T00:02:48.442Z,2.85
2017-09-02T00:05:18.238Z,2.85
2017-09-02T00:07:47.969Z,2.40
2017-09-02T00:10:17.594Z,2.85
2017-09-02T00:12:47.320Z,3.10
2017-09-02T00:15:17.099Z,3.33
2017-09-02T00:17:46.877Z,3.60
2017-09-02T00:20:16.660Z,3.50
2017-09-02T00:22:46.445Z,3.10
2017-09-02T00:25:16.210Z,3.30
2017-09-02T00:27:45.929Z,3.75
2017-09-02T00:30:15.775Z,3.55
2017-09-02T00:32:45.533Z,3.90
2017-09-02T00:35:15.287Z,3.80
2017-09-02T00:37:45.026Z,3.75
2017-09-02T00:40:14.822Z,4.00
2017-09-02T00:42:44.434Z,4.28
2017-09-02T00:45:14.754Z,4.47
2017-09-02T00:47:44.481Z,4.35
2017-09-02T00:50:14.250Z,3.67
2017-09-02T00:52:44.764Z,4.05
2017-09-02T00:55:14.601Z,3.65
2017-09-02T00:57:44.339Z,3.35
2017-09-02T01:00:14.046Z,3.80
2017-09-02T01:02:43.662Z,3.78
2017-09-02T01:05:13.488Z,4.15
2017-09-02T01:07:43.892Z,3.60
2017-09-02T01:10:13.682Z,3.40
2017-09-02T01:12:43.425Z,3.30
2017-09-02T01:15:13.256Z,4.05
2017-09-02T01:17:43.054Z,3.70
2017-09-02T01:20:12.842Z,3.50
2017-09-02T01:22:42.584Z,3.53
2017-09-02T01:25:12.387Z,4.20
2017-09-02T01:27:42.122Z,3.80
2017-09-02T01:30:17.463Z,3.85
2017-09-02T01:32:47.201Z,3.75
2017-09-02T01:35:16.986Z,4.25
2017-09-02T01:37:46.713Z,3.37
2017-09-02T01:40:16.503Z,3.55
2017-09-02T01:42:46.228Z,3.72
2017-09-02T01:45:16.026Z,3.83
2017-09-02T01:47:45.900Z,4.35
2017-09-02T01:50:15.718Z,4.60
2017-09-02T01:52:45.440Z,4.07
2017-09-02T01:55:15.239Z,4.53
2017-09-02T01:57:44.977Z,4.75
2017-09-02T02:00:14.763Z,4.50
2017-09-02T02:02:44.318Z,5.53
2017-09-02T02:05:14.090Z,5.30
2017-09-02T02:07:43.812Z,4.68
2017-09-02T02:10:13.643Z,4.90
2017-09-02T02:12:43.225Z,4.82
2017-09-02T02:15:13.024Z,4.80
2017-09-02T02:17:42.749Z,5.20
2017-09-02T02:20:12.529Z,5.25
2017-09-02T02:22:42.267Z,5.30
2017-09-02T02:25:12.061Z,5.12
2017-09-02T02:27:41.794Z,5.05
2017-09-02T02:30:11.557Z,4.80
2017-09-02T02:32:41.294Z,5.40
2017-09-02T02:35:11.057Z,5.05
2017-09-02T02:37:40.777Z,5.22
2017-09-02T02:40:10.556Z,4.43
2017-09-02T02:42:40.268Z,5.00
2017-09-02T02:45:09.854Z,5.25
2017-09-02T02:47:39.584Z,4.53
2017-09-02T02:50:09.350Z,5.50
2017-09-02T02:52:39.079Z,5.15
2017-09-02T02:55:08.829Z,5.40
2017-09-02T02:57:38.705Z,4.37
2017-09-02T03:00:08.484Z,5.30
2017-09-02T03:02:38.049Z,4.72
2017-09-02T03:05:07.831Z,5.00
2017-09-02T03:07:37.668Z,5.15
2017-09-02T03:10:07.262Z,4.47
2017-09-02T03:12:37.093Z,5.30
2017-09-02T03:15:06.843Z,4.28
2017-09-02T03:17:36.578Z,4.45
2017-09-02T03:20:06.431Z,4.37
2017-09-02T03:22:36.167Z,4.70
2017-09-02T03:25:05.954Z,4.93
2017-09-02T03:27:35.698Z,4.70
2017-09-02T03:30:06.351Z,4.18
2017-09-02T03:32:36.102Z,4.05
2017-09-02T03:35:05.848Z,4.85
2017-09-02T03:37:35.587Z,4.75
2017-09-02T03:40:05.416Z,4.03
2017-09-02T03:42:35.202Z,4.20
2017-09-02T03:45:04.963Z,4.62
2017-09-02T03:47:34.722Z,4.35
2017-09-02T03:50:04.507Z,4.53
2017-09-02T03:52:34.327Z,4.10
2017-09-02T03:55:04.214Z,4.00
2017-09-02T03:57:33.934Z,4.35
2017-09-02T04:00:03.538Z,4.20
2017-09-02T04:02:33.119Z,4.00
2017-09-02T04:05:02.889Z,4.18
2017-09-02T04:07:32.616Z,4.40
2017-09-02T04:10:02.417Z,3.90
2017-09-02T04:12:32.149Z,4.20
2017-09-02T04:15:01.918Z,4.65
2017-09-02T04:17:31.643Z,4.30
2017-09-02T04:20:01.414Z,4.85
2017-09-02T04:22:31.137Z,3.85
2017-09-02T04:25:00.872Z,4.35
2017-09-02T04:27:30.619Z,4.55
2017-09-02T04:30:00.368Z,4.12
2017-09-02T04:32:30.096Z,4.40
2017-09-02T04:34:59.845Z,3.80
2017-09-02T04:37:29.582Z,4.40
2017-09-02T04:39:59.329Z,4.32
2017-09-02T04:42:29.056Z,4.28
2017-09-02T04:44:58.785Z,4.47
2017-09-02T04:47:28.519Z,3.95
2017-09-02T04:49:58.505Z,4.35
2017-09-02T04:52:28.248Z,4.93
2017-09-02T04:54:58.068Z,4.15
2017-09-02T04:57:27.803Z,4.62
2017-09-02T04:59:57.536Z,4.22
2017-09-02T05:02:27.269Z,4.62
2017-09-02T05:04:57.000Z,5.12
2017-09-02T05:07:26.746Z,4.25
2017-09-02T05:09:56.491Z,4.03
2017-09-02T05:12:26.211Z,4.40
2017-09-02T05:14:56.177Z,3.60
2017-09-02T05:17:25.891Z,4.32
2017-09-02T05:19:55.628Z,3.85
2017-09-02T05:22:25.356Z,4.60
2017-09-02T05:24:55.097Z,4.78
2017-09-02T05:27:24.657Z,4.55
2017-09-02T05:29:54.385Z,4.80
2017-09-02T05:32:24.151Z,5.03
2017-09-02T05:34:53.708Z,4.70
2017-09-02T05:37:23.680Z,4.45
2017-09-02T05:39:53.418Z,4.32
2017-09-02T05:42:23.181Z,4.90
2017-09-02T05:44:52.713Z,4.30
2017-09-02T05:47:22.462Z,4.60
2017-09-02T05:49:52.121Z,4.97
2017-09-02T05:52:21.850Z,5.10
2017-09-02T05:54:51.622Z,4.85
2017-09-02T05:57:21.361Z,5.07
2017-09-02T05:59:51.173Z,4.50
2017-09-02T06:02:20.913Z,4.47
2017-09-02T06:04:50.797Z,4.70
2017-09-02T06:07:20.541Z,5.30
2017-09-02T06:09:50.265Z,4.82
2017-09-02T06:12:19.721Z,4.50
2017-09-02T06:14:49.461Z,5.20
2017-09-02T06:17:19.213Z,5.10
2017-09-02T06:19:48.961Z,4.37
2017-09-02T06:22:18.409Z,5.10
2017-09-02T06:24:47.885Z,4.80
2017-09-02T06:27:17.368Z,4.43
2017-09-02T06:29:46.798Z,3.93
2017-09-02T06:32:16.253Z,4.17
2017-09-02T06:34:45.808Z,5.13
2017-09-02T06:37:15.234Z,4.80
2017-09-02T06:39:44.695Z,4.40
2017-09-02T06:42:14.172Z,4.30
2017-09-02T06:44:44.124Z,4.63
2017-09-02T06:47:13.581Z,4.80
2017-09-02T06:49:43.092Z,5.10
2017-09-02T06:52:12.551Z,4.47
2017-09-02T06:54:42.000Z,5.03
2017-09-02T06:57:11.450Z,4.50
2017-09-02T06:59:40.902Z,4.20
2017-09-02T07:02:10.366Z,4.60
2017-09-02T07:04:39.808Z,4.20
2017-09-02T07:07:09.249Z,4.43
2017-09-02T07:09:38.704Z,5.00
2017-09-02T07:12:08.147Z,3.90
2017-09-02T07:14:37.615Z,4.30
2017-09-02T07:17:07.044Z,4.00
2017-09-02T07:19:36.332Z,4.10
2017-09-02T07:22:05.778Z,4.43
2017-09-02T07:24:35.234Z,4.60
2017-09-02T07:27:04.701Z,4.40
2017-09-02T07:29:34.136Z,4.43
2017-09-02T07:32:03.582Z,4.60
2017-09-02T07:34:32.824Z,4.73
2017-09-02T07:37:02.292Z,4.83
2017-09-02T07:39:31.981Z,4.77
2017-09-02T07:42:01.436Z,4.43
2017-09-02T07:44:30.869Z,4.70
2017-09-02T07:47:00.321Z,4.40
2017-09-02T07:49:29.752Z,4.40
2017-09-02T07:51:59.188Z,4.27
2017-09-02T07:54:28.641Z,4.13
2017-09-02T07:56:58.102Z,4.83
2017-09-02T07:59:27.536Z,4.80
2017-09-02T08:01:56.785Z,4.70
2017-09-02T08:04:26.040Z,4.50
2017-09-02T08:06:55.315Z,4.50
2017-09-02T08:09:24.581Z,4.40
2017-09-02T08:11:53.835Z,4.00
2017-09-02T08:14:23.316Z,4.10
2017-09-02T08:16:52.775Z,4.13
2017-09-02T08:19:22.061Z,4.10
2017-09-02T08:21:51.537Z,4.50
2017-09-02T08:24:20.893Z,3.63
2017-09-02T08:26:50.336Z,3.60
2017-09-02T08:29:19.845Z,4.40
2017-09-02T08:31:49.377Z,3.90
2017-09-02T08:34:18.872Z,3.37
2017-09-02T08:36:48.391Z,4.17
2017-09-02T08:39:17.846Z,3.57
2017-09-02T08:41:47.309Z,4.10
2017-09-02T08:44:16.755Z,3.20
2017-09-02T08:46:46.206Z,3.30
2017-09-02T08:49:15.876Z,4.00
2017-09-02T08:51:45.500Z,3.73
2017-09-02T08:54:15.023Z,3.80
2017-09-02T08:56:44.585Z,3.87
2017-09-02T08:59:14.105Z,3.47
2017-09-02T09:01:43.566Z,3.33
2017-09-02T09:04:12.997Z,3.50
2017-09-02T09:06:42.439Z,3.67
2017-09-02T09:09:11.969Z,3.53
2017-09-02T09:11:41.410Z,3.00
2017-09-02T09:14:10.734Z,2.93
2017-09-02T09:16:40.193Z,2.93
2017-09-02T09:19:09.658Z,3.20
2017-09-02T09:21:39.094Z,3.37
2017-09-02T09:24:08.552Z,3.13
2017-09-02T09:26:38.011Z,2.97
2017-09-02T09:29:07.449Z,2.80
2017-09-02T09:31:36.901Z,3.30
2017-09-02T09:34:06.339Z,3.30
2017-09-02T09:36:35.781Z,3.27
2017-09-02T09:39:04.638Z,4.13
2017-09-02T09:41:34.068Z,3.30
2017-09-02T09:44:03.522Z,3.50
2017-09-02T09:46:32.966Z,4.23
2017-09-02T09:49:02.237Z,4.07
2017-09-02T09:51:31.668Z,4.20
2017-09-02T09:54:01.123Z,4.10
2017-09-02T09:56:30.583Z,4.60
2017-09-02T09:59:00.024Z,4.40
2017-09-02T10:01:29.465Z,4.23
2017-09-02T10:03:58.933Z,4.07
2017-09-02T10:06:28.368Z,5.00
2017-09-02T10:08:57.805Z,4.00
2017-09-02T10:11:27.294Z,3.90
2017-09-02T10:13:56.729Z,3.93
2017-09-02T10:16:26.048Z,3.53
2017-09-02T10:18:55.479Z,3.90
2017-09-02T10:21:24.915Z,3.60
2017-09-02T10:23:54.372Z,4.20
2017-09-02T10:26:23.834Z,4.00
2017-09-02T10:28:53.298Z,4.30
2017-09-02T10:31:22.771Z,3.27
2017-09-02T10:33:52.088Z,3.17
2017-09-02T10:36:21.528Z,3.10
2017-09-02T10:38:50.977Z,2.97
2017-09-02T10:41:20.431Z,2.93
2017-09-02T10:43:49.886Z,2.73
2017-09-02T10:46:19.329Z,2.33
2017-09-02T10:48:48.777Z,2.97
2017-09-02T10:51:18.225Z,2.87
2017-09-02T10:53:47.709Z,2.50
2017-09-02T10:56:17.140Z,2.90
2017-09-02T10:58:46.575Z,2.40
2017-09-02T11:01:16.025Z,2.30
2017-09-02T11:03:45.481Z,2.30
2017-09-02T11:06:14.932Z,2.20
2017-09-02T11:08:44.371Z,2.23
2017-09-02T11:11:13.818Z,2.17
2017-09-02T11:13:43.544Z,2.10
2017-09-02T11:16:13.008Z,2.30
2017-09-02T11:18:42.454Z,2.23
2017-09-02T11:21:12.984Z,2.33
2017-09-02T11:23:42.451Z,2.27
2017-09-02T11:26:11.929Z,2.30
2017-09-02T11:28:41.372Z,1.50
2017-09-02T11:31:10.900Z,2.37
2017-09-02T11:33:40.318Z,1.93
2017-09-02T11:36:09.762Z,1.93
2017-09-02T11:38:39.196Z,2.23
2017-09-02T11:41:08.664Z,1.97
2017-09-02T11:43:38.109Z,2.10
2017-09-02T11:46:07.563Z,2.23
2017-09-02T11:48:36.999Z,2.23
2017-09-02T11:51:06.448Z,2.03
2017-09-02T11:53:35.888Z,1.63
2017-09-02T11:56:05.321Z,1.90
2017-09-02T11:58:34.766Z,2.07
2017-09-02T12:01:04.209Z,1.87
2017-09-02T12:03:33.665Z,1.97
2017-09-02T12:06:03.097Z,1.80
2017-09-02T12:08:32.585Z,2.03
2017-09-02T12:11:02.206Z,1.77
2017-09-02T12:13:31.673Z,2.20
2017-09-02T12:16:00.902Z,1.80
2017-09-02T12:18:30.172Z,2.10
2017-09-02T12:20:59.620Z,2.10
2017-09-02T12:23:29.078Z,2.50
2017-09-02T12:25:58.544Z,4.00
2017-09-02T12:28:27.791Z,2.27
2017-09-02T12:30:57.027Z,1.83
2017-09-02T12:33:26.269Z,1.80
2017-09-02T12:35:55.534Z,1.90
2017-09-02T12:38:24.791Z,2.43
2017-09-02T12:40:54.048Z,1.97
2017-09-02T12:43:24.892Z,1.60
2017-09-02T12:45:54.128Z,2.10
2017-09-02T12:48:23.380Z,2.20
2017-09-02T12:50:52.620Z,1.70
2017-09-02T12:53:21.925Z,2.03
2017-09-02T12:55:51.148Z,2.50
2017-09-02T12:58:20.409Z,2.13
2017-09-02T13:00:49.644Z,2.20
2017-09-02T13:03:18.927Z,2.03
2017-09-02T13:05:47.814Z,2.20
2017-09-02T13:08:17.062Z,1.80
2017-09-02T13:10:46.351Z,3.10
2017-09-02T13:13:15.623Z,2.33
2017-09-02T13:15:44.888Z,2.20
2017-09-02T13:18:14.132Z,2.17
2017-09-02T13:20:43.382Z,2.23
2017-09-02T13:23:12.678Z,2.40
2017-09-02T13:25:41.921Z,2.67
2017-09-02T13:28:11.151Z,2.70
2017-09-02T13:30:40.394Z,3.23
2017-09-02T13:33:09.637Z,2.63
2017-09-02T13:35:38.914Z,2.23
2017-09-02T13:38:08.268Z,2.57
2017-09-02T13:40:37.524Z,2.50
2017-09-02T13:43:06.822Z,2.80
2017-09-02T13:45:36.318Z,2.40
2017-09-02T13:48:05.577Z,4.50
2017-09-02T13:50:34.821Z,3.00
2017-09-02T13:53:04.057Z,2.93
2017-09-02T13:55:33.319Z,2.63
2017-09-02T13:58:02.392Z,2.90
2017-09-02T14:00:31.654Z,2.20
2017-09-02T14:03:00.896Z,2.93
2017-09-02T14:05:30.140Z,2.93
2017-09-02T14:07:59.389Z,3.37
2017-09-02T14:10:28.458Z,2.83
2017-09-02T14:12:57.512Z,3.50
2017-09-02T14:15:26.560Z,2.77
2017-09-02T14:17:56.113Z,3.23
2017-09-02T14:20:25.363Z,3.10
2017-09-02T14:22:54.584Z,2.87
2017-09-02T14:25:23.893Z,3.13
2017-09-02T14:27:53.680Z,2.93
2017-09-02T14:30:22.998Z,3.07
2017-09-02T14:32:52.242Z,2.87
2017-09-02T14:35:21.618Z,3.40
2017-09-02T14:37:50.853Z,3.50
2017-09-02T14:40:20.144Z,2.80
2017-09-02T14:42:49.379Z,3.27
2017-09-02T14:45:18.677Z,3.53
2017-09-02T14:47:47.910Z,3.63
2017-09-02T14:50:17.209Z,3.67
2017-09-02T14:52:46.458Z,3.07
2017-09-02T14:55:15.764Z,3.33
2017-09-02T14:57:45.000Z,3.13
2017-09-02T15:00:14.363Z,2.70
2017-09-02T15:02:43.420Z,3.23
2017-09-02T15:05:12.718Z,3.17
2017-09-02T15:07:42.030Z,2.60
2017-09-02T15:10:11.298Z,3.00
2017-09-02T15:12:40.553Z,2.90
2017-09-02T15:15:09.823Z,2.63
2017-09-02T15:17:39.082Z,3.10
2017-09-02T15:20:08.363Z,2.50
2017-09-02T15:22:37.623Z,2.70
2017-09-02T15:25:06.941Z,2.40
2017-09-02T15:27:36.206Z,2.40
2017-09-02T15:30:05.484Z,2.50
2017-09-02T15:32:34.721Z,2.70
2017-09-02T15:35:04.087Z,2.43
2017-09-02T15:37:33.329Z,2.70
2017-09-02T15:40:02.644Z,2.60
2017-09-02T15:42:31.879Z,2.27
2017-09-02T15:45:01.156Z,2.47
2017-09-02T15:47:30.392Z,2.57
2017-09-02T15:49:59.634Z,2.20
2017-09-02T15:52:28.898Z,2.43
2017-09-02T15:54:58.125Z,2.60
2017-09-02T15:57:27.400Z,2.33
2017-09-02T15:59:56.640Z,2.50
2017-09-02T16:02:25.894Z,2.03
2017-09-02T16:04:55.148Z,2.53
2017-09-02T16:07:25.244Z,2.90
2017-09-02T16:09:54.575Z,2.60
2017-09-02T16:12:23.828Z,3.60
2017-09-02T16:14:53.070Z,2.87
2017-09-02T16:17:22.334Z,2.87
2017-09-02T16:19:51.566Z,3.00
2017-09-02T16:22:20.820Z,3.80
2017-09-02T16:24:50.064Z,2.90
2017-09-02T16:27:19.321Z,3.27
2017-09-02T16:29:48.561Z,2.70
2017-09-02T16:32:17.794Z,3.33
2017-09-02T16:34:47.056Z,3.17
2017-09-02T16:37:16.307Z,2.90
2017-09-02T16:39:45.540Z,4.53
2017-09-02T16:42:14.858Z,3.50
2017-09-02T16:44:44.100Z,3.20
2017-09-02T16:47:13.137Z,2.97
2017-09-02T16:49:42.192Z,3.50
2017-09-02T16:52:11.248Z,3.30
2017-09-02T16:54:40.325Z,3.43
2017-09-02T16:57:09.614Z,2.70
2017-09-02T16:59:38.684Z,3.20
2017-09-02T17:02:08.042Z,3.00
2017-09-02T17:04:37.090Z,3.33
2017-09-02T17:07:06.142Z,4.07
2017-09-02T17:09:35.209Z,3.97
2017-09-02T17:12:04.280Z,4.53
2017-09-02T17:14:33.659Z,6.93
2017-09-02T17:17:02.809Z,10.60
2017-09-02T17:19:32.158Z,7.10
2017-09-02T17:22:01.521Z,4.55
2017-09-02T17:24:31.917Z,5.40
2017-09-02T17:27:01.278Z,10.82
2017-09-02T17:29:30.712Z,6.00
2017-09-02T17:32:00.032Z,4.95
2017-09-02T17:34:29.566Z,4.40
2017-09-02T17:36:59.098Z,4.05
2017-09-02T17:39:28.621Z,4.00
2017-09-02T17:41:58.148Z,4.03
2017-09-02T17:44:27.799Z,4.05
2017-09-02T17:46:57.330Z,3.72
2017-09-02T17:49:26.676Z,4.55
2017-09-02T17:51:56.210Z,4.60
2017-09-02T17:54:25.740Z,4.00
2017-09-02T17:56:54.943Z,5.37
2017-09-02T17:59:24.481Z,4.00
2017-09-02T18:01:54.685Z,4.03
2017-09-02T18:04:23.987Z,3.67
2017-09-02T18:06:53.540Z,3.65
2017-09-02T18:09:23.121Z,4.40
2017-09-02T18:11:52.629Z,4.05
2017-09-02T18:14:22.164Z,4.25
2017-09-02T18:16:51.694Z,3.97
2017-09-02T18:19:21.225Z,4.75
2017-09-02T18:21:50.796Z,3.78
2017-09-02T18:24:20.365Z,4.35
2017-09-02T18:26:49.889Z,4.28
2017-09-02T18:29:19.472Z,3.95
2017-09-02T18:31:49.008Z,4.28
2017-09-02T18:34:18.543Z,4.65
2017-09-02T18:36:48.068Z,5.03
2017-09-02T18:39:17.611Z,5.20
2017-09-02T18:41:47.145Z,5.03
2017-09-02T18:44:16.663Z,5.12
2017-09-02T18:46:46.194Z,5.25
2017-09-02T18:49:15.550Z,5.93
2017-09-02T18:51:45.084Z,6.55
2017-09-02T18:54:14.413Z,5.95
2017-09-02T18:56:43.968Z,6.35
2017-09-02T18:59:13.512Z,4.72
2017-09-02T19:01:43.051Z,4.45
2017-09-02T19:04:12.667Z,4.78
2017-09-02T19:06:42.198Z,5.15
2017-09-02T19:09:11.768Z,5.60
2017-09-02T19:11:41.290Z,5.40
2017-09-02T19:14:10.634Z,5.05
2017-09-02T19:16:40.156Z,5.45
2017-09-02T19:19:09.697Z,5.15
2017-09-02T19:21:39.305Z,5.20
2017-09-02T19:24:08.845Z,5.25
2017-09-02T19:26:38.388Z,5.37
2017-09-02T19:29:08.004Z,5.60
2017-09-02T19:31:37.613Z,5.47
2017-09-02T19:34:07.153Z,6.15
2017-09-02T19:36:37.647Z,5.70
2017-09-02T19:39:07.189Z,5.47
2017-09-02T19:41:36.738Z,5.85
2017-09-02T19:44:06.525Z,6.45
2017-09-02T19:46:36.055Z,6.35
2017-09-02T19:49:05.620Z,6.60
2017-09-02T19:51:35.156Z,6.10
2017-09-02T19:54:04.704Z,6.80
2017-09-02T19:56:34.238Z,6.20
2017-09-02T19:59:03.776Z,6.40
2017-09-02T20:01:33.349Z,6.57
2017-09-02T20:04:02.917Z,5.60
2017-09-02T20:06:32.697Z,6.25
2017-09-02T20:09:01.954Z,6.80
2017-09-02T20:11:31.305Z,6.47
2017-09-02T20:14:01.043Z,5.87
2017-09-02T20:16:30.937Z,5.72
2017-09-02T20:19:00.680Z,6.35
2017-09-02T20:21:30.443Z,6.35
2017-09-02T20:24:00.281Z,6.35
2017-09-02T20:26:30.195Z,5.72
2017-09-02T20:29:00.004Z,5.72
2017-09-02T20:31:29.768Z,5.90
2017-09-02T20:33:59.629Z,5.72
2017-09-02T20:36:29.528Z,5.40
2017-09-02T20:38:59.388Z,6.30
2017-09-02T20:41:29.112Z,5.95
2017-09-02T20:43:58.859Z,6.50
2017-09-02T20:46:28.600Z,5.90
2017-09-02T20:48:58.340Z,5.60
2017-09-02T20:51:28.228Z,5.87
2017-09-02T20:53:57.989Z,5.15
2017-09-02T20:56:27.765Z,5.60
2017-09-02T20:58:57.496Z,5.55
2017-09-02T21:01:27.256Z,6.30
2017-09-02T21:03:56.806Z,6.22
2017-09-02T21:06:26.541Z,5.55
2017-09-02T21:08:56.371Z,6.53
2017-09-02T21:11:26.116Z,7.40
2017-09-02T21:13:55.878Z,6.35
2017-09-02T21:16:25.648Z,6.15
2017-09-02T21:18:55.372Z,7.05
2017-09-02T21:21:25.093Z,6.72
2017-09-02T21:23:54.885Z,7.25
2017-09-02T21:26:24.635Z,7.37
2017-09-02T21:28:54.355Z,7.20
2017-09-02T21:31:24.088Z,7.07
2017-09-02T21:33:53.796Z,7.62
2017-09-02T21:36:23.566Z,8.90
2017-09-02T21:38:53.287Z,7.20
2017-09-02T21:41:23.074Z,6.85
2017-09-02T21:43:52.812Z,7.60
2017-09-02T21:46:22.563Z,8.35
2017-09-02T21:48:52.307Z,7.35
2017-09-02T21:51:22.065Z,7.60
2017-09-02T21:53:51.807Z,7.75
2017-09-02T21:56:21.544Z,6.90
2017-09-02T21:58:52.177Z,7.72
2017-09-02T22:01:21.905Z,7.82
2017-09-02T22:03:51.662Z,6.78
2017-09-02T22:06:21.380Z,8.10
2017-09-02T22:08:51.116Z,7.00
2017-09-02T22:11:20.856Z,6.30
2017-09-02T22:13:50.641Z,7.95
2017-09-02T22:16:20.401Z,6.80
2017-09-02T22:18:50.145Z,5.82
2017-09-02T22:21:19.877Z,4.75
2017-09-02T22:23:49.618Z,5.65
2017-09-02T22:26:19.357Z,5.75
2017-09-02T22:28:49.098Z,5.87
2017-09-02T22:31:18.862Z,5.72
2017-09-02T22:33:48.400Z,6.32
2017-09-02T22:36:18.233Z,6.15
2017-09-02T22:38:47.968Z,5.60
2017-09-02T22:41:17.712Z,6.22
2017-09-02T22:43:47.261Z,6.10
2017-09-02T22:46:16.986Z,5.20
2017-09-02T22:48:46.728Z,4.50
2017-09-02T22:51:16.461Z,4.32
2017-09-02T22:53:46.222Z,6.25
2017-09-02T22:56:15.927Z,5.40
2017-09-02T22:58:45.656Z,5.00
2017-09-02T23:01:15.392Z,5.15
2017-09-02T23:03:45.122Z,4.53
2017-09-02T23:06:14.844Z,4.62
2017-09-02T23:08:44.589Z,4.57
2017-09-02T23:11:14.320Z,4.87
2017-09-02T23:13:44.105Z,4.60
2017-09-02T23:16:13.847Z,6.70
2017-09-02T23:18:43.569Z,4.70
2017-09-02T23:21:14.255Z,4.15
2017-09-02T23:23:43.975Z,4.85
2017-09-02T23:26:13.730Z,5.10
2017-09-02T23:28:43.454Z,5.10
2017-09-02T23:31:13.197Z,5.37
2017-09-02T23:33:42.941Z,5.40
2017-09-02T23:36:12.665Z,5.20
2017-09-02T23:38:42.397Z,4.87
2017-09-02T23:41:12.135Z,5.45
2017-09-02T23:43:41.862Z,5.15
2017-09-02T23:46:11.658Z,5.03
2017-09-02T23:48:41.381Z,5.37
2017-09-02T23:51:11.116Z,6.00
2017-09-02T23:53:40.842Z,4.80
2017-09-02T23:56:10.592Z,5.12
2017-09-02T23:58:40.328Z,5.47
